Terminal Aerodrome Forecast
Issued by NWS

Home | Current Version | Previous Version | Graphics & Text | Print | Product List | Glossary On
Versions: 1 2 3 4 5 6 7 8 9 10 11 12 13 14 15 16 17 18 19 20 21
000
FTUS41 KCLE 031657 AAC
TAFFDY
TAF AMD
KFDY 031657Z 0317/0412 26010G20KT P6SM BKN025
     FM032000 26012KT P6SM SCT030
     FM032300 28006KT P6SM SCT040 BKN250=

USA.gov is the U.S. government's official web portal to all federal, state and local government web resources and services.